• Join FlightAware (Why Join?)
  • Login
  • US Flag 
08:11PM EDT


 

Airport Tracker/Info


-or-


 

Live Flight TrackerFlight Track Log ✈ RPA3865 ✈ 17-Jun-2013 ✈ KRAP - KDEN

Flight Track Log - Related Links

Times and Time Zones

All times are in EDT time to prevent confusion due to time zone crossing. See the RPA3865 flight status page for this flight to view local times or setup timezone preferences in your user account.

Time Position Orientation Groundspeed Altitude Reporting Facility
EDT Latitude Longitude Course Direction KTS MPH feet Rate Location/Type
07:58PM 43.9686 -103.0692 186° South 213 245 6,300  Level Denver Center
07:59PM 43.9228 -103.0825 192° South 222 255 8,400 2,400 Climbing Denver Center
08:00PM 43.8642 -103.0942 188° South 222 255 10,800 2,280 Climbing Denver Center
08:01PM 43.7956 -103.1089 189° South 222 255 13,200 1,980 Climbing Denver Center
08:02PM 43.7453 -103.1197 189° South 226 260 14,900 1,920 Climbing Denver Center
08:03PM 43.6619 -103.1369 189° South 235 270 17,200 1,500 Climbing Denver Center
08:04PM 43.5925 -103.1525 189° South 250 288 18,100 1,020 Climbing Denver Center
08:05PM 43.5303 -103.1625 187° South 268 308 19,400 1,260 Climbing Denver Center
08:06PM 43.4281 -103.1825 188° South 286 329 20,800 1,440 Climbing Denver Center
08:07PM 43.3389 -103.2000 188° South 289 333 22,400 1,260 Climbing Denver Center
08:08PM 43.2617 -103.2147 188° South 289 333 23,500 720 Climbing Denver Center
08:09PM 43.1692 -103.2333 188° South 302 348 24,000 240 Climbing Denver Center
08:10PM 43.0808 -103.2478 187° South 332 382 24,000  Level Denver Center
08:11PM 42.9869 -103.2311 173° South 355 409 24,000  Level Denver Center
08:12PM 42.8736 -103.2144 174° South 363 418 24,000  Level Denver Center
08:13PM 42.7425 -103.2006 176° South 369 425 24,000  Level Denver Center
08:14PM 42.6428 -103.1939 177° South 372 428 24,000  Level Denver Center
08:15PM 42.5258 -103.1867 177° South 376 433 24,000  Level Denver Center
08:16PM 42.4300 -103.2097 190° South 368 423 24,000  Level Denver Center
08:17PM 42.3381 -103.2494 198° South 362 417 24,000  Level Denver Center
08:18PM 42.2336 -103.3033 201° Southwest 358 412 24,000  Level Denver Center
08:20PM 42.1450 -103.3503 201° Southwest 357 411 24,000  Level Denver Center
08:21PM 42.0425 -103.4047 202° Southwest 355 409 24,000  Level Denver Center
08:22PM 41.9547 -103.4497 201° Southwest 352 405 24,000  Level Denver Center
08:23PM 41.8314 -103.4922 194° South 367 422 24,000  Level Denver Center
08:24PM 41.7375 -103.5036 185° South 356 410 24,000  Level Denver Center
08:25PM 41.6092 -103.5236 187° South 363 418 24,000  Level Denver Center
08:26PM 41.4969 -103.5411 187° South 363 418 24,000 -180 Level Denver Center
08:27PM 41.4011 -103.5547 186° South 362 417 23,700 -960 Descending Denver Center
08:28PM 41.2856 -103.5719 186° South 372 428 22,100 -1,560 Descending Denver Center
08:29PM 41.1872 -103.5858 186° South 371 427 20,500 -1,620 Descending Denver Center
08:30PM 41.0719 -103.6008 186° South 372 428 18,800 -1,440 Descending Denver Center
08:31PM 40.9789 -103.6164 187° South 376 433 17,600 -1,320 Descending Denver Center
08:32PM 40.8736 -103.6322 186° South 380 437 16,100 -780 Descending Denver Center
08:33PM 40.7914 -103.6419 185° South 373 429 16,100  Level Denver Center
08:34PM 40.6517 -103.6631 187° South 360 414 16,100  Level Denver Center
08:35PM 40.5653 -103.7178 206° Southwest 354 407 16,100 -540 Level Denver Center
08:36PM 40.4981 -103.8094 226° Southwest 349 402 15,000 -1,380 Descending Denver Center
08:38PM 40.4297 -103.9072 227° Southwest 345 397 13,300 -1,020 Descending Denver Center
08:39PM 40.3708 -103.9858 225° Southwest 305 351 13,000 -120 Descending Denver Center
08:40PM 40.3444 -104.0922 252° West 290 334 13,100 -240 Climbing Denver Center
08:41PM 40.3244 -104.1953 256° West 294 338 12,600 -1,020 Descending Denver Center
08:42PM 40.3047 -104.3044 257° West 289 333 11,100 -780 Descending Denver Center
08:43PM 40.2889 -104.3992 258° West 271 312 11,100 -60 Level Denver Center
08:44PM 40.2703 -104.4925 255° West 252 290 11,000 -780 Descending Denver Center
08:45PM 40.2167 -104.5500 219° Southwest 249 287 9,600 -1,020 Descending Denver Center
08:46PM 40.1547 -104.6128 218° Southwest 261 300 9,000 -360 Descending Denver Center
08:47PM 40.1000 -104.6667 217° Southwest 249 287 8,900 -600 Descending Denver Center
08:48PM 40.0294 -104.6850 191° South 248 285 7,800 -1,140 Descending Denver Center
08:49PM 39.9647 -104.6858 181° South 232 267 6,600 -1,020 Descending Denver Center
08:50PM 39.9181 -104.6867 181° South 164 189 5,800 -600 Descending Denver Center
08:51PM 39.8839 -104.6869 180° South 136 157 5,400 -420 Descending Denver Center
08:54PM 39.8617 -104.6732 237° Southwest  Level Estimated
09:01PM 39.8617 -104.6732 237° Southwest  Level Estimated